RYR6RR EGSS-LEAM
Flight info
| Callsign | RYR6RR |
|---|---|
| Flight time | 2h 13m |
| Altitude | 38000 |
| Route | NUGBO M183 SILVA Q41 SAM N63 LELNA/N0436F370 DCT NOVAN DCT NENEM P152 PPN N10 CJN L27 BLN N865 ESILA |
| Aircraft | B738/M-SDE3FGILRWY/SB1 |
Departure
| Time | 2026-04-14 06:53 |
|---|---|
| Airport | London Stansted Airport (EGSS) |
Arrival
| Time | 2026-04-14 09:06 |
|---|---|
| Airport | Almería Airport (LEAM) |
| Time | Latitude | Longitude | Altitude | Speed | Heading |
|---|---|---|---|---|---|
| 2026-04-14 06:37 | 51.89248 | 0.25517 | 359 ft | 0 kts | 163° |
| 2026-04-14 06:48 | 51.89251 | 0.25516 | 351 ft | 3 kts | 163° |
| 2026-04-14 06:48 | 51.89277 | 0.25503 | 355 ft | 3 kts | 163° |
| 2026-04-14 06:48 | 51.89298 | 0.25487 | 361 ft | 4 kts | 116° |
| 2026-04-14 06:48 | 51.89296 | 0.25459 | 358 ft | 3 kts | 44° |
| 2026-04-14 06:49 | 51.89282 | 0.25436 | 361 ft | 2 kts | 43° |
| 2026-04-14 06:49 | 51.89281 | 0.25434 | 361 ft | 0 kts | 43° |
| 2026-04-14 06:51 | 51.89288 | 0.25445 | 359 ft | 4 kts | 43° |
| 2026-04-14 06:51 | 51.89323 | 0.25498 | 358 ft | 10 kts | 41° |
| 2026-04-14 06:51 | 51.89398 | 0.25509 | 355 ft | 12 kts | 323° |
| 2026-04-14 06:52 | 51.89413 | 0.25379 | 351 ft | 12 kts | 276° |
| 2026-04-14 06:52 | 51.89463 | 0.25263 | 354 ft | 13 kts | 313° |
| 2026-04-14 06:52 | 51.89494 | 0.25112 | 357 ft | 18 kts | 271° |
| 2026-04-14 06:52 | 51.89432 | 0.24879 | 350 ft | 36 kts | 222° |
| 2026-04-14 06:53 | 51.89062 | 0.24324 | 356 ft | 108 kts | 223° |
| 2026-04-14 06:53 | 51.88349 | 0.23265 | 358 ft | 166 kts | 221° |
| 2026-04-14 06:53 | 51.87481 | 0.21961 | 1010 ft | 174 kts | 221° |
| 2026-04-14 06:53 | 51.86589 | 0.20636 | 1954 ft | 175 kts | 220° |
| 2026-04-14 06:54 | 51.85631 | 0.19251 | 2525 ft | 191 kts | 221° |
| 2026-04-14 06:54 | 51.84652 | 0.17743 | 3147 ft | 197 kts | 225° |
| 2026-04-14 06:54 | 51.83746 | 0.16017 | 3664 ft | 211 kts | 240° |
| 2026-04-14 06:54 | 51.83401 | 0.13613 | 4177 ft | 230 kts | 272° |
| 2026-04-14 06:55 | 51.83993 | 0.11149 | 4836 ft | 245 kts | 307° |
| 2026-04-14 06:55 | 51.85423 | 0.09652 | 5713 ft | 251 kts | 344° |
| 2026-04-14 06:55 | 51.87107 | 0.09437 | 6873 ft | 241 kts | 359° |
| 2026-04-14 06:55 | 51.88807 | 0.09398 | 7558 ft | 242 kts | 348° |
| 2026-04-14 06:56 | 51.90481 | 0.08846 | 8116 ft | 255 kts | 344° |
| 2026-04-14 06:56 | 51.92311 | 0.08202 | 8303 ft | 282 kts | 345° |
| 2026-04-14 06:56 | 51.94257 | 0.07563 | 9053 ft | 285 kts | 346° |
| 2026-04-14 06:56 | 51.96181 | 0.06957 | 10091 ft | 278 kts | 345° |
| 2026-04-14 06:57 | 51.97925 | 0.05944 | 11242 ft | 258 kts | 323° |
| 2026-04-14 06:57 | 51.99179 | 0.03879 | 11845 ft | 263 kts | 297° |
| 2026-04-14 06:57 | 51.99715 | 0.01010 | 12345 ft | 271 kts | 274° |
| 2026-04-14 06:57 | 51.99676 | -0.00995 | 12951 ft | 265 kts | 263° |
| 2026-04-14 06:58 | 51.99285 | -0.03813 | 14115 ft | 253 kts | 257° |
| 2026-04-14 06:58 | 51.98838 | -0.06707 | 14394 ft | 270 kts | 259° |
| 2026-04-14 06:58 | 51.98404 | -0.09743 | 14602 ft | 288 kts | 258° |
| 2026-04-14 06:58 | 51.97868 | -0.12946 | 14998 ft | 302 kts | 254° |
| 2026-04-14 06:59 | 51.97105 | -0.16311 | 15196 ft | 324 kts | 251° |
| 2026-04-14 06:59 | 51.96306 | -0.19741 | 15695 ft | 333 kts | 252° |
| 2026-04-14 06:59 | 51.95425 | -0.23239 | 16367 ft | 339 kts | 242° |
| 2026-04-14 06:59 | 51.93911 | -0.26204 | 17089 ft | 347 kts | 223° |
| 2026-04-14 07:00 | 51.91911 | -0.28440 | 17830 ft | 351 kts | 214° |
| 2026-04-14 07:00 | 51.89810 | -0.30505 | 18488 ft | 356 kts | 214° |
| 2026-04-14 07:00 | 51.87641 | -0.32599 | 19059 ft | 360 kts | 214° |
| 2026-04-14 07:00 | 51.85504 | -0.34659 | 19607 ft | 365 kts | 214° |
| 2026-04-14 07:01 | 51.83315 | -0.36778 | 20171 ft | 368 kts | 215° |
| 2026-04-14 07:01 | 51.81079 | -0.38952 | 20752 ft | 372 kts | 215° |
| 2026-04-14 07:01 | 51.78845 | -0.41132 | 21258 ft | 377 kts | 216° |
| 2026-04-14 07:01 | 51.76588 | -0.43340 | 21774 ft | 382 kts | 216° |
| 2026-04-14 07:02 | 51.74307 | -0.45572 | 22316 ft | 385 kts | 216° |
| 2026-04-14 07:02 | 51.72005 | -0.47826 | 22857 ft | 389 kts | 216° |
| 2026-04-14 07:02 | 51.69677 | -0.50103 | 23379 ft | 393 kts | 216° |
| 2026-04-14 07:02 | 51.67359 | -0.52369 | 23866 ft | 397 kts | 217° |
| 2026-04-14 07:03 | 51.64954 | -0.54717 | 24298 ft | 401 kts | 217° |
| 2026-04-14 07:03 | 51.62562 | -0.57051 | 24718 ft | 404 kts | 217° |
| 2026-04-14 07:03 | 51.60182 | -0.59368 | 25138 ft | 407 kts | 217° |
| 2026-04-14 07:03 | 51.57751 | -0.61734 | 25553 ft | 410 kts | 218° |
| 2026-04-14 07:04 | 51.55293 | -0.64122 | 25916 ft | 415 kts | 218° |
| 2026-04-14 07:04 | 51.52812 | -0.66530 | 26287 ft | 419 kts | 218° |
| 2026-04-14 07:04 | 51.50374 | -0.68893 | 26689 ft | 421 kts | 218° |
| 2026-04-14 07:04 | 51.47856 | -0.71329 | 27098 ft | 424 kts | 218° |
| 2026-04-14 07:05 | 51.45285 | -0.73813 | 27491 ft | 427 kts | 218° |
| 2026-04-14 07:05 | 51.42762 | -0.76248 | 27867 ft | 430 kts | 219° |
| 2026-04-14 07:05 | 51.40156 | -0.78760 | 28235 ft | 433 kts | 219° |
| 2026-04-14 07:05 | 51.37564 | -0.81255 | 28603 ft | 436 kts | 219° |
| 2026-04-14 07:06 | 51.34985 | -0.83735 | 28958 ft | 439 kts | 219° |
| 2026-04-14 07:06 | 51.32321 | -0.86292 | 29293 ft | 443 kts | 219° |
| 2026-04-14 07:06 | 51.29667 | -0.88838 | 29570 ft | 447 kts | 219° |
| 2026-04-14 07:06 | 51.26994 | -0.91398 | 29906 ft | 450 kts | 219° |
| 2026-04-14 07:07 | 51.24300 | -0.93973 | 30221 ft | 452 kts | 219° |
| 2026-04-14 07:07 | 51.21598 | -0.96549 | 30530 ft | 453 kts | 219° |
| 2026-04-14 07:07 | 51.18895 | -0.99122 | 30914 ft | 452 kts | 219° |
| 2026-04-14 07:07 | 51.16187 | -1.01698 | 31156 ft | 455 kts | 219° |
| 2026-04-14 07:08 | 51.13458 | -1.04296 | 31365 ft | 459 kts | 219° |
| 2026-04-14 07:08 | 51.10706 | -1.06910 | 31604 ft | 462 kts | 219° |
| 2026-04-14 07:08 | 51.07946 | -1.09528 | 31868 ft | 463 kts | 219° |
| 2026-04-14 07:08 | 51.05173 | -1.12152 | 32197 ft | 463 kts | 219° |
| 2026-04-14 07:09 | 51.02403 | -1.14767 | 32558 ft | 463 kts | 219° |
| 2026-04-14 07:09 | 50.99637 | -1.17374 | 32902 ft | 462 kts | 219° |
| 2026-04-14 07:09 | 50.96872 | -1.19980 | 33208 ft | 463 kts | 219° |
| 2026-04-14 07:09 | 50.94101 | -1.22589 | 33521 ft | 463 kts | 219° |
| 2026-04-14 07:10 | 50.91329 | -1.25194 | 33863 ft | 463 kts | 219° |
| 2026-04-14 07:10 | 50.88560 | -1.27794 | 34159 ft | 463 kts | 219° |
| 2026-04-14 07:10 | 50.85792 | -1.30388 | 34417 ft | 462 kts | 219° |
| 2026-04-14 07:10 | 50.83025 | -1.32979 | 34670 ft | 462 kts | 219° |
| 2026-04-14 07:11 | 50.80261 | -1.35562 | 34981 ft | 461 kts | 219° |
| 2026-04-14 07:11 | 50.77507 | -1.38130 | 35333 ft | 458 kts | 219° |
| 2026-04-14 07:11 | 50.74773 | -1.40676 | 35648 ft | 456 kts | 219° |
| 2026-04-14 07:11 | 50.72048 | -1.43211 | 35995 ft | 453 kts | 219° |
| 2026-04-14 07:12 | 50.69339 | -1.45728 | 36314 ft | 451 kts | 219° |
| 2026-04-14 07:12 | 50.66644 | -1.48231 | 36636 ft | 449 kts | 219° |
| 2026-04-14 07:12 | 50.63959 | -1.50722 | 36924 ft | 447 kts | 219° |
| 2026-04-14 07:12 | 50.61196 | -1.53034 | 37090 ft | 456 kts | 211° |
| 2026-04-14 07:13 | 50.58159 | -1.54657 | 37301 ft | 466 kts | 202° |
| 2026-04-14 07:13 | 50.54935 | -1.55575 | 37501 ft | 474 kts | 195° |
| 2026-04-14 07:13 | 50.51709 | -1.56213 | 37739 ft | 474 kts | 194° |
| 2026-04-14 07:13 | 50.48400 | -1.56840 | 38028 ft | 472 kts | 194° |
| 2026-04-14 07:14 | 50.45175 | -1.57454 | 38062 ft | 475 kts | 194° |
| 2026-04-14 07:14 | 50.38583 | -1.58756 | 38052 ft | 473 kts | 194° |
| 2026-04-14 07:15 | 50.32104 | -1.60077 | 38067 ft | 473 kts | 195° |
| 2026-04-14 07:15 | 50.25584 | -1.61422 | 38085 ft | 473 kts | 195° |
| 2026-04-14 07:16 | 50.19015 | -1.62775 | 38080 ft | 473 kts | 195° |
| 2026-04-14 07:16 | 50.12492 | -1.64113 | 38079 ft | 473 kts | 194° |
| 2026-04-14 07:17 | 50.05960 | -1.65448 | 38080 ft | 474 kts | 194° |
| 2026-04-14 07:17 | 49.99418 | -1.66781 | 38082 ft | 475 kts | 194° |
| 2026-04-14 07:18 | 49.92862 | -1.68113 | 38059 ft | 476 kts | 194° |
| 2026-04-14 07:18 | 49.86288 | -1.69444 | 38079 ft | 477 kts | 194° |
| 2026-04-14 07:19 | 49.79702 | -1.70775 | 38081 ft | 478 kts | 194° |
| 2026-04-14 07:19 | 49.73098 | -1.72105 | 38057 ft | 479 kts | 194° |
| 2026-04-14 07:20 | 49.66475 | -1.73435 | 38078 ft | 480 kts | 194° |
| 2026-04-14 07:20 | 49.59840 | -1.74765 | 38085 ft | 482 kts | 194° |
| 2026-04-14 07:21 | 49.53185 | -1.76094 | 38074 ft | 483 kts | 194° |
| 2026-04-14 07:21 | 49.46517 | -1.77423 | 38067 ft | 484 kts | 194° |
| 2026-04-14 07:22 | 49.39830 | -1.78751 | 38049 ft | 485 kts | 194° |
| 2026-04-14 07:22 | 49.33134 | -1.80078 | 38077 ft | 486 kts | 194° |
| 2026-04-14 07:23 | 49.26419 | -1.81405 | 38071 ft | 487 kts | 194° |
| 2026-04-14 07:23 | 49.19684 | -1.82733 | 38089 ft | 489 kts | 194° |
| 2026-04-14 07:24 | 49.12928 | -1.84060 | 38088 ft | 490 kts | 194° |
| 2026-04-14 07:24 | 49.06152 | -1.85388 | 38061 ft | 492 kts | 194° |
| 2026-04-14 07:25 | 48.99362 | -1.86715 | 38086 ft | 492 kts | 194° |
| 2026-04-14 07:25 | 48.92558 | -1.88041 | 38091 ft | 493 kts | 194° |
| 2026-04-14 07:26 | 48.85744 | -1.89365 | 38095 ft | 494 kts | 194° |
| 2026-04-14 07:26 | 48.78912 | -1.90689 | 38083 ft | 495 kts | 194° |
| 2026-04-14 07:27 | 48.72079 | -1.92009 | 38076 ft | 495 kts | 194° |
| 2026-04-14 07:27 | 48.65248 | -1.93325 | 38078 ft | 494 kts | 194° |
| 2026-04-14 07:28 | 48.58431 | -1.94635 | 38069 ft | 494 kts | 194° |
| 2026-04-14 07:28 | 48.51619 | -1.95941 | 38077 ft | 493 kts | 194° |
| 2026-04-14 07:29 | 48.44817 | -1.97242 | 38093 ft | 493 kts | 194° |
| 2026-04-14 07:29 | 48.38017 | -1.98539 | 38079 ft | 492 kts | 193° |
| 2026-04-14 07:30 | 48.31221 | -1.99832 | 38099 ft | 492 kts | 193° |
| 2026-04-14 07:30 | 48.24418 | -2.01122 | 38104 ft | 493 kts | 193° |
| 2026-04-14 07:31 | 48.17607 | -2.02412 | 38089 ft | 494 kts | 193° |
| 2026-04-14 07:31 | 48.10786 | -2.03699 | 38103 ft | 495 kts | 193° |
| 2026-04-14 07:32 | 48.03951 | -2.04985 | 38090 ft | 496 kts | 193° |
| 2026-04-14 07:32 | 47.97101 | -2.06270 | 38089 ft | 497 kts | 193° |
| 2026-04-14 07:33 | 47.90240 | -2.07554 | 38104 ft | 497 kts | 193° |
| 2026-04-14 07:33 | 47.83364 | -2.08837 | 38096 ft | 498 kts | 193° |
| 2026-04-14 07:34 | 47.69592 | -2.11397 | 38100 ft | 499 kts | 193° |
| 2026-04-14 07:35 | 47.62684 | -2.12676 | 38094 ft | 500 kts | 193° |
| 2026-04-14 07:35 | 47.55788 | -2.13949 | 38099 ft | 500 kts | 193° |
| 2026-04-14 07:36 | 47.48890 | -2.15219 | 38098 ft | 500 kts | 193° |
| 2026-04-14 07:36 | 47.41987 | -2.16487 | 38128 ft | 500 kts | 193° |
| 2026-04-14 07:37 | 47.35134 | -2.17743 | 38114 ft | 500 kts | 193° |
| 2026-04-14 07:37 | 47.28233 | -2.19004 | 38135 ft | 499 kts | 193° |
| 2026-04-14 07:38 | 47.21336 | -2.20261 | 38130 ft | 499 kts | 193° |
| 2026-04-14 07:38 | 47.14438 | -2.21515 | 38116 ft | 500 kts | 192° |
| 2026-04-14 07:39 | 47.08654 | -2.22564 | 38105 ft | 500 kts | 192° |
| 2026-04-14 07:39 | 47.01787 | -2.23806 | 38111 ft | 501 kts | 192° |
| 2026-04-14 07:40 | 46.94823 | -2.25063 | 38123 ft | 501 kts | 192° |
| 2026-04-14 07:40 | 46.87938 | -2.26302 | 38123 ft | 502 kts | 192° |
| 2026-04-14 07:41 | 46.80991 | -2.27549 | 38116 ft | 503 kts | 192° |
| 2026-04-14 07:41 | 46.74035 | -2.28794 | 38119 ft | 504 kts | 192° |
| 2026-04-14 07:42 | 46.67076 | -2.30036 | 38120 ft | 504 kts | 192° |
| 2026-04-14 07:42 | 46.60115 | -2.31276 | 38127 ft | 504 kts | 192° |
| 2026-04-14 07:43 | 46.53150 | -2.32513 | 38114 ft | 504 kts | 192° |
| 2026-04-14 07:43 | 46.46184 | -2.33747 | 38133 ft | 504 kts | 192° |
| 2026-04-14 07:44 | 46.39212 | -2.34979 | 38130 ft | 505 kts | 192° |
| 2026-04-14 07:44 | 46.32244 | -2.36207 | 38129 ft | 505 kts | 192° |
| 2026-04-14 07:45 | 46.25270 | -2.37434 | 38137 ft | 505 kts | 192° |
| 2026-04-14 07:45 | 46.18297 | -2.38656 | 38136 ft | 505 kts | 192° |
| 2026-04-14 07:46 | 46.11322 | -2.39876 | 38119 ft | 505 kts | 192° |
| 2026-04-14 07:46 | 46.04354 | -2.41092 | 38138 ft | 504 kts | 192° |
| 2026-04-14 07:47 | 45.97384 | -2.42305 | 38139 ft | 505 kts | 192° |
| 2026-04-14 07:47 | 45.90459 | -2.43508 | 38136 ft | 505 kts | 192° |
| 2026-04-14 07:48 | 45.83482 | -2.44716 | 38138 ft | 505 kts | 192° |
| 2026-04-14 07:48 | 45.76507 | -2.45920 | 38142 ft | 505 kts | 192° |
| 2026-04-14 07:49 | 45.69525 | -2.47123 | 38143 ft | 505 kts | 192° |
| 2026-04-14 07:49 | 45.62539 | -2.48324 | 38150 ft | 506 kts | 192° |
| 2026-04-14 07:50 | 45.55551 | -2.49522 | 38146 ft | 506 kts | 192° |
| 2026-04-14 07:50 | 45.48557 | -2.50718 | 38146 ft | 506 kts | 192° |
| 2026-04-14 07:51 | 45.41561 | -2.51911 | 38159 ft | 507 kts | 192° |
| 2026-04-14 07:51 | 45.34554 | -2.53103 | 38149 ft | 507 kts | 192° |
| 2026-04-14 07:52 | 45.27539 | -2.54294 | 38155 ft | 508 kts | 191° |
| 2026-04-14 07:52 | 45.20518 | -2.55482 | 38163 ft | 509 kts | 191° |
| 2026-04-14 07:53 | 45.13483 | -2.56671 | 38147 ft | 509 kts | 191° |
| 2026-04-14 07:53 | 45.06441 | -2.57856 | 38179 ft | 510 kts | 191° |
| 2026-04-14 07:54 | 44.99392 | -2.59041 | 38154 ft | 510 kts | 191° |
| 2026-04-14 07:54 | 44.92336 | -2.60224 | 38163 ft | 511 kts | 191° |
| 2026-04-14 07:55 | 44.85274 | -2.61404 | 38171 ft | 511 kts | 191° |
| 2026-04-14 07:55 | 44.78213 | -2.62582 | 38159 ft | 511 kts | 191° |
| 2026-04-14 07:56 | 44.71146 | -2.63757 | 38168 ft | 511 kts | 191° |
| 2026-04-14 07:56 | 44.64128 | -2.64922 | 38175 ft | 511 kts | 191° |
| 2026-04-14 07:57 | 44.57059 | -2.66093 | 38170 ft | 511 kts | 191° |
| 2026-04-14 07:57 | 44.49993 | -2.67260 | 38144 ft | 512 kts | 191° |
| 2026-04-14 07:58 | 44.42931 | -2.68422 | 38161 ft | 510 kts | 191° |
| 2026-04-14 07:58 | 44.35820 | -2.68938 | 38175 ft | 513 kts | 184° |
| 2026-04-14 07:59 | 44.28674 | -2.68912 | 38176 ft | 513 kts | 183° |
| 2026-04-14 07:59 | 44.21537 | -2.68880 | 38178 ft | 512 kts | 184° |
| 2026-04-14 08:00 | 44.14410 | -2.68932 | 38175 ft | 512 kts | 184° |
| 2026-04-14 08:00 | 44.07288 | -2.69027 | 38186 ft | 512 kts | 184° |
| 2026-04-14 08:01 | 44.00165 | -2.69130 | 38190 ft | 512 kts | 184° |
| 2026-04-14 08:01 | 43.93034 | -2.69229 | 38183 ft | 513 kts | 184° |
| 2026-04-14 08:02 | 43.85896 | -2.69323 | 38185 ft | 513 kts | 184° |
| 2026-04-14 08:02 | 43.78747 | -2.69417 | 38172 ft | 514 kts | 184° |
| 2026-04-14 08:03 | 43.71589 | -2.69511 | 38188 ft | 515 kts | 184° |
| 2026-04-14 08:03 | 43.64421 | -2.69604 | 38185 ft | 515 kts | 184° |
| 2026-04-14 08:04 | 43.57243 | -2.69698 | 38178 ft | 516 kts | 184° |
| 2026-04-14 08:04 | 43.50062 | -2.69791 | 38185 ft | 516 kts | 184° |
| 2026-04-14 08:05 | 43.42924 | -2.69884 | 38190 ft | 516 kts | 184° |
| 2026-04-14 08:05 | 43.35741 | -2.69977 | 38185 ft | 516 kts | 184° |
| 2026-04-14 08:06 | 43.28550 | -2.70070 | 38185 ft | 516 kts | 184° |
| 2026-04-14 08:06 | 43.21377 | -2.70162 | 38210 ft | 515 kts | 184° |
| 2026-04-14 08:07 | 43.14198 | -2.70255 | 38208 ft | 516 kts | 183° |
| 2026-04-14 08:07 | 43.07018 | -2.70347 | 38206 ft | 516 kts | 183° |
| 2026-04-14 08:08 | 42.99836 | -2.70439 | 38200 ft | 516 kts | 184° |
| 2026-04-14 08:08 | 42.92657 | -2.70531 | 38214 ft | 516 kts | 183° |
| 2026-04-14 08:09 | 42.85480 | -2.70622 | 38214 ft | 516 kts | 183° |
| 2026-04-14 08:09 | 42.78292 | -2.70714 | 38223 ft | 517 kts | 183° |
| 2026-04-14 08:10 | 42.71086 | -2.70806 | 38216 ft | 518 kts | 183° |
| 2026-04-14 08:10 | 42.63871 | -2.70897 | 38213 ft | 519 kts | 183° |
| 2026-04-14 08:11 | 42.56646 | -2.70988 | 38205 ft | 519 kts | 183° |
| 2026-04-14 08:11 | 42.49470 | -2.71078 | 38214 ft | 519 kts | 183° |
| 2026-04-14 08:12 | 42.42242 | -2.71169 | 38214 ft | 520 kts | 183° |
| 2026-04-14 08:12 | 42.35001 | -2.71260 | 38200 ft | 521 kts | 182° |
| 2026-04-14 08:13 | 42.27755 | -2.71351 | 38202 ft | 521 kts | 182° |
| 2026-04-14 08:13 | 42.20504 | -2.71441 | 38210 ft | 521 kts | 182° |
| 2026-04-14 08:14 | 42.13245 | -2.71532 | 38195 ft | 522 kts | 182° |
| 2026-04-14 08:14 | 42.05984 | -2.71623 | 38192 ft | 522 kts | 182° |
| 2026-04-14 08:15 | 41.98731 | -2.71712 | 38190 ft | 521 kts | 182° |
| 2026-04-14 08:15 | 41.91495 | -2.71801 | 38180 ft | 519 kts | 182° |
| 2026-04-14 08:16 | 41.84292 | -2.71889 | 38214 ft | 517 kts | 182° |
| 2026-04-14 08:16 | 41.77098 | -2.71978 | 38205 ft | 517 kts | 182° |
| 2026-04-14 08:17 | 41.69911 | -2.72067 | 38214 ft | 517 kts | 182° |
| 2026-04-14 08:17 | 41.62713 | -2.72155 | 38206 ft | 517 kts | 182° |
| 2026-04-14 08:18 | 41.55513 | -2.72244 | 38213 ft | 518 kts | 182° |
| 2026-04-14 08:18 | 41.48295 | -2.72332 | 38200 ft | 519 kts | 182° |
| 2026-04-14 08:19 | 41.41120 | -2.72419 | 38213 ft | 520 kts | 182° |
| 2026-04-14 08:19 | 41.33832 | -2.72508 | 38210 ft | 521 kts | 182° |
| 2026-04-14 08:20 | 41.26580 | -2.72596 | 38202 ft | 522 kts | 182° |
| 2026-04-14 08:20 | 41.19366 | -2.72683 | 38205 ft | 522 kts | 182° |
| 2026-04-14 08:21 | 41.12097 | -2.72771 | 38201 ft | 522 kts | 182° |
| 2026-04-14 08:21 | 41.04826 | -2.72858 | 38203 ft | 522 kts | 182° |
| 2026-04-14 08:22 | 40.97560 | -2.72946 | 38200 ft | 522 kts | 182° |
| 2026-04-14 08:22 | 40.90302 | -2.73032 | 38197 ft | 521 kts | 182° |
| 2026-04-14 08:23 | 40.83048 | -2.73119 | 38193 ft | 521 kts | 182° |
| 2026-04-14 08:23 | 40.75810 | -2.73206 | 38204 ft | 520 kts | 182° |
| 2026-04-14 08:24 | 40.68579 | -2.73292 | 38206 ft | 519 kts | 182° |
| 2026-04-14 08:24 | 40.61354 | -2.73378 | 38195 ft | 519 kts | 182° |
| 2026-04-14 08:25 | 40.54142 | -2.73463 | 38208 ft | 518 kts | 182° |
| 2026-04-14 08:25 | 40.46936 | -2.73549 | 38209 ft | 518 kts | 182° |
| 2026-04-14 08:26 | 40.39723 | -2.73634 | 38199 ft | 519 kts | 182° |
| 2026-04-14 08:26 | 40.32506 | -2.73719 | 38200 ft | 519 kts | 182° |
| 2026-04-14 08:27 | 40.25275 | -2.73804 | 38196 ft | 520 kts | 182° |
| 2026-04-14 08:27 | 40.19264 | -2.73875 | 38196 ft | 520 kts | 181° |
| 2026-04-14 08:28 | 40.12015 | -2.73960 | 38200 ft | 521 kts | 181° |
| 2026-04-14 08:28 | 40.04758 | -2.74045 | 38194 ft | 522 kts | 181° |
| 2026-04-14 08:29 | 39.97493 | -2.74129 | 38197 ft | 522 kts | 181° |
| 2026-04-14 08:29 | 39.90221 | -2.74214 | 38193 ft | 523 kts | 181° |
| 2026-04-14 08:30 | 39.82948 | -2.74298 | 38188 ft | 523 kts | 181° |
| 2026-04-14 08:30 | 39.75673 | -2.74383 | 38191 ft | 523 kts | 181° |
| 2026-04-14 08:31 | 39.68397 | -2.74467 | 38094 ft | 524 kts | 181° |
| 2026-04-14 08:31 | 39.61124 | -2.74550 | 37520 ft | 520 kts | 181° |
| 2026-04-14 08:31 | 39.57521 | -2.74591 | 37266 ft | 517 kts | 181° |
| 2026-04-14 08:32 | 39.50327 | -2.74674 | 37203 ft | 518 kts | 181° |
| 2026-04-14 08:32 | 39.43093 | -2.74758 | 37201 ft | 521 kts | 181° |
| 2026-04-14 08:33 | 39.35841 | -2.74842 | 37199 ft | 522 kts | 181° |
| 2026-04-14 08:33 | 39.28581 | -2.74925 | 37195 ft | 522 kts | 181° |
| 2026-04-14 08:34 | 39.21318 | -2.75007 | 37201 ft | 522 kts | 181° |
| 2026-04-14 08:34 | 39.14058 | -2.75090 | 37208 ft | 522 kts | 181° |
| 2026-04-14 08:35 | 39.06801 | -2.75172 | 37207 ft | 521 kts | 181° |
| 2026-04-14 08:35 | 38.99555 | -2.75254 | 37208 ft | 520 kts | 181° |
| 2026-04-14 08:36 | 38.92321 | -2.75336 | 37193 ft | 519 kts | 181° |
| 2026-04-14 08:36 | 38.85108 | -2.75418 | 37191 ft | 518 kts | 181° |
| 2026-04-14 08:37 | 38.77917 | -2.75499 | 37209 ft | 516 kts | 181° |
| 2026-04-14 08:37 | 38.70752 | -2.75579 | 37212 ft | 514 kts | 181° |
| 2026-04-14 08:38 | 38.63614 | -2.75660 | 37208 ft | 512 kts | 181° |
| 2026-04-14 08:38 | 38.56499 | -2.75739 | 37217 ft | 510 kts | 181° |
| 2026-04-14 08:39 | 38.49457 | -2.75818 | 37214 ft | 509 kts | 181° |
| 2026-04-14 08:39 | 38.42380 | -2.75897 | 37222 ft | 508 kts | 181° |
| 2026-04-14 08:40 | 38.35315 | -2.75976 | 37229 ft | 508 kts | 181° |
| 2026-04-14 08:40 | 38.28244 | -2.76054 | 37228 ft | 509 kts | 181° |
| 2026-04-14 08:41 | 38.21154 | -2.76133 | 37211 ft | 509 kts | 181° |
| 2026-04-14 08:41 | 38.14049 | -2.76212 | 36976 ft | 516 kts | 181° |
| 2026-04-14 08:42 | 38.10456 | -2.76251 | 36692 ft | 515 kts | 181° |
| 2026-04-14 08:42 | 38.06878 | -2.76291 | 36175 ft | 515 kts | 181° |
| 2026-04-14 08:42 | 38.03298 | -2.76330 | 35618 ft | 514 kts | 181° |
| 2026-04-14 08:42 | 37.99708 | -2.76369 | 34919 ft | 518 kts | 181° |
| 2026-04-14 08:43 | 37.96082 | -2.76410 | 34108 ft | 525 kts | 181° |
| 2026-04-14 08:43 | 37.92398 | -2.76451 | 33123 ft | 533 kts | 181° |
| 2026-04-14 08:43 | 37.88665 | -2.76493 | 32146 ft | 540 kts | 181° |
| 2026-04-14 08:43 | 37.84898 | -2.76538 | 31370 ft | 542 kts | 181° |
| 2026-04-14 08:44 | 37.81131 | -2.76578 | 30671 ft | 541 kts | 181° |
| 2026-04-14 08:44 | 37.77359 | -2.76618 | 29786 ft | 543 kts | 181° |
| 2026-04-14 08:44 | 37.73580 | -2.76658 | 28842 ft | 544 kts | 181° |
| 2026-04-14 08:44 | 37.69796 | -2.76698 | 27968 ft | 543 kts | 181° |
| 2026-04-14 08:45 | 37.66014 | -2.76739 | 26983 ft | 544 kts | 181° |
| 2026-04-14 08:45 | 37.62221 | -2.76781 | 26024 ft | 545 kts | 181° |
| 2026-04-14 08:45 | 37.58428 | -2.76822 | 25083 ft | 546 kts | 180° |
| 2026-04-14 08:45 | 37.54636 | -2.76863 | 24230 ft | 544 kts | 180° |
| 2026-04-14 08:46 | 37.50870 | -2.76905 | 23489 ft | 538 kts | 180° |
| 2026-04-14 08:46 | 37.47157 | -2.76945 | 22859 ft | 528 kts | 180° |
| 2026-04-14 08:46 | 37.43466 | -2.76985 | 22213 ft | 519 kts | 181° |
| 2026-04-14 08:46 | 37.39877 | -2.77023 | 21512 ft | 513 kts | 181° |
| 2026-04-14 08:47 | 37.36333 | -2.77061 | 20823 ft | 506 kts | 181° |
| 2026-04-14 08:47 | 37.32835 | -2.77099 | 20171 ft | 499 kts | 181° |
| 2026-04-14 08:47 | 37.29436 | -2.77136 | 19545 ft | 492 kts | 181° |
| 2026-04-14 08:47 | 37.26032 | -2.77173 | 18918 ft | 486 kts | 181° |
| 2026-04-14 08:48 | 37.22683 | -2.77209 | 18565 ft | 473 kts | 181° |
| 2026-04-14 08:48 | 37.19463 | -2.77244 | 18451 ft | 454 kts | 181° |
| 2026-04-14 08:48 | 37.16375 | -2.77277 | 18304 ft | 431 kts | 181° |
| 2026-04-14 08:48 | 37.13452 | -2.77307 | 18160 ft | 409 kts | 181° |
| 2026-04-14 08:49 | 37.10676 | -2.77337 | 18026 ft | 390 kts | 181° |
| 2026-04-14 08:49 | 37.08036 | -2.77137 | 17868 ft | 373 kts | 165° |
| 2026-04-14 08:49 | 37.05730 | -2.75899 | 17618 ft | 353 kts | 142° |
| 2026-04-14 08:49 | 37.03893 | -2.73956 | 17106 ft | 341 kts | 127° |
| 2026-04-14 08:50 | 37.02559 | -2.71555 | 16461 ft | 335 kts | 112° |
| 2026-04-14 08:50 | 37.01493 | -2.68974 | 15951 ft | 332 kts | 111° |
| 2026-04-14 08:50 | 37.00458 | -2.66406 | 15494 ft | 331 kts | 111° |
| 2026-04-14 08:50 | 36.99403 | -2.63838 | 15123 ft | 332 kts | 112° |
| 2026-04-14 08:51 | 36.98341 | -2.61283 | 14810 ft | 330 kts | 112° |
| 2026-04-14 08:51 | 36.97421 | -2.58696 | 14620 ft | 318 kts | 98° |
| 2026-04-14 08:51 | 36.97309 | -2.56008 | 14185 ft | 307 kts | 73° |
| 2026-04-14 08:51 | 36.98157 | -2.53670 | 13860 ft | 287 kts | 41° |
| 2026-04-14 08:52 | 36.99730 | -2.52327 | 13636 ft | 272 kts | 22° |
| 2026-04-14 08:52 | 37.01424 | -2.51261 | 13239 ft | 273 kts | 23° |
| 2026-04-14 08:52 | 37.03121 | -2.50180 | 12869 ft | 273 kts | 23° |
| 2026-04-14 08:52 | 37.04825 | -2.49147 | 12564 ft | 271 kts | 23° |
| 2026-04-14 08:53 | 37.06344 | -2.47755 | 12259 ft | 275 kts | 43° |
| 2026-04-14 08:53 | 37.07638 | -2.45980 | 11846 ft | 278 kts | 43° |
| 2026-04-14 08:53 | 37.08846 | -2.44069 | 11456 ft | 283 kts | 56° |
| 2026-04-14 08:53 | 37.09620 | -2.41777 | 11066 ft | 288 kts | 66° |
| 2026-04-14 08:54 | 37.10250 | -2.39393 | 10771 ft | 289 kts | 74° |
| 2026-04-14 08:54 | 37.10598 | -2.36924 | 10550 ft | 285 kts | 76° |
| 2026-04-14 08:54 | 37.10968 | -2.34499 | 10292 ft | 282 kts | 75° |
| 2026-04-14 08:54 | 37.11155 | -2.32045 | 9822 ft | 290 kts | 92° |
| 2026-04-14 08:55 | 37.10832 | -2.29501 | 9314 ft | 297 kts | 97° |
| 2026-04-14 08:55 | 37.10502 | -2.26989 | 9188 ft | 288 kts | 95° |
| 2026-04-14 08:55 | 37.10219 | -2.24522 | 8922 ft | 285 kts | 95° |
| 2026-04-14 08:55 | 37.09926 | -2.22084 | 8681 ft | 281 kts | 95° |
| 2026-04-14 08:56 | 37.09667 | -2.19668 | 8376 ft | 280 kts | 95° |
| 2026-04-14 08:56 | 37.09410 | -2.17251 | 8044 ft | 281 kts | 95° |
| 2026-04-14 08:56 | 37.09148 | -2.14832 | 7750 ft | 279 kts | 96° |
| 2026-04-14 08:56 | 37.08663 | -2.12500 | 7471 ft | 280 kts | 116° |
| 2026-04-14 08:57 | 37.07383 | -2.10659 | 7188 ft | 281 kts | 146° |
| 2026-04-14 08:57 | 37.05591 | -2.09856 | 6990 ft | 277 kts | 178° |
| 2026-04-14 08:57 | 37.03732 | -2.10419 | 6635 ft | 277 kts | 212° |
| 2026-04-14 08:57 | 37.02311 | -2.11983 | 6398 ft | 271 kts | 230° |
| 2026-04-14 08:58 | 37.01004 | -2.13593 | 6507 ft | 255 kts | 214° |
| 2026-04-14 08:58 | 36.99383 | -2.14275 | 6447 ft | 246 kts | 180° |
| 2026-04-14 08:58 | 36.97744 | -2.13750 | 6149 ft | 246 kts | 147° |
| 2026-04-14 08:58 | 36.96611 | -2.12220 | 5950 ft | 240 kts | 111° |
| 2026-04-14 08:59 | 36.96137 | -2.10259 | 5947 ft | 232 kts | 103° |
| 2026-04-14 08:59 | 36.95706 | -2.08327 | 5931 ft | 231 kts | 106° |
| 2026-04-14 08:59 | 36.95183 | -2.06425 | 5884 ft | 231 kts | 116° |
| 2026-04-14 08:59 | 36.94242 | -2.04842 | 5923 ft | 229 kts | 137° |
| 2026-04-14 09:00 | 36.92962 | -2.03646 | 5845 ft | 231 kts | 150° |
| 2026-04-14 09:00 | 36.91489 | -2.02890 | 5879 ft | 230 kts | 171° |
| 2026-04-14 09:00 | 36.89935 | -2.03023 | 5728 ft | 222 kts | 201° |
| 2026-04-14 09:00 | 36.88670 | -2.04047 | 5472 ft | 218 kts | 230° |
| 2026-04-14 09:01 | 36.87889 | -2.05730 | 4890 ft | 233 kts | 254° |
| 2026-04-14 09:01 | 36.87771 | -2.07726 | 4625 ft | 228 kts | 279° |
| 2026-04-14 09:01 | 36.88183 | -2.09624 | 4242 ft | 227 kts | 289° |
| 2026-04-14 09:01 | 36.88708 | -2.11478 | 3905 ft | 224 kts | 289° |
| 2026-04-14 09:02 | 36.89216 | -2.13273 | 3643 ft | 216 kts | 289° |
| 2026-04-14 09:02 | 36.89567 | -2.15033 | 3414 ft | 207 kts | 274° |
| 2026-04-14 09:02 | 36.89326 | -2.16824 | 2863 ft | 215 kts | 252° |
| 2026-04-14 09:02 | 36.88825 | -2.18556 | 2685 ft | 202 kts | 251° |
| 2026-04-14 09:03 | 36.88405 | -2.20156 | 2573 ft | 187 kts | 255° |
| 2026-04-14 09:03 | 36.88057 | -2.21660 | 2320 ft | 175 kts | 254° |
| 2026-04-14 09:03 | 36.87727 | -2.23049 | 2187 ft | 155 kts | 256° |
| 2026-04-14 09:03 | 36.87476 | -2.24296 | 1934 ft | 145 kts | 258° |
| 2026-04-14 09:04 | 36.87241 | -2.25516 | 1662 ft | 143 kts | 254° |
| 2026-04-14 09:04 | 36.86927 | -2.26702 | 1427 ft | 144 kts | 251° |
| 2026-04-14 09:04 | 36.86609 | -2.27883 | 1221 ft | 142 kts | 251° |
| 2026-04-14 09:04 | 36.86292 | -2.29061 | 1020 ft | 144 kts | 253° |
| 2026-04-14 09:05 | 36.86013 | -2.30275 | 836 ft | 147 kts | 257° |
| 2026-04-14 09:05 | 36.85729 | -2.31513 | 680 ft | 149 kts | 255° |
| 2026-04-14 09:05 | 36.85437 | -2.32743 | 538 ft | 148 kts | 256° |
| 2026-04-14 09:05 | 36.85131 | -2.33989 | 351 ft | 152 kts | 256° |
| 2026-04-14 09:06 | 36.84818 | -2.35271 | 128 ft | 156 kts | 255° |
| 2026-04-14 09:06 | 36.84514 | -2.36510 | 58 ft | 135 kts | 253° |
| 2026-04-14 09:06 | 36.84306 | -2.37375 | 58 ft | 74 kts | 253° |
| 2026-04-14 09:06 | 36.84203 | -2.37813 | 59 ft | 39 kts | 259° |
| 2026-04-14 09:07 | 36.84212 | -2.38085 | 63 ft | 26 kts | 279° |
| 2026-04-14 09:07 | 36.84258 | -2.38190 | 64 ft | 10 kts | 7° |
| 2026-04-14 09:07 | 36.84296 | -2.38124 | 60 ft | 10 kts | 71° |
| 2026-04-14 09:07 | 36.84315 | -2.38044 | 62 ft | 10 kts | 73° |
| 2026-04-14 09:08 | 36.84336 | -2.37959 | 65 ft | 11 kts | 72° |
| 2026-04-14 09:08 | 36.84361 | -2.37857 | 65 ft | 14 kts | 73° |
| 2026-04-14 09:08 | 36.84393 | -2.37727 | 65 ft | 17 kts | 73° |
| 2026-04-14 09:08 | 36.84431 | -2.37573 | 62 ft | 14 kts | 72° |
| 2026-04-14 09:09 | 36.84490 | -2.37501 | 65 ft | 13 kts | 7° |
| 2026-04-14 09:09 | 36.84541 | -2.37432 | 66 ft | 9 kts | 71° |
| 2026-04-14 09:09 | 36.84559 | -2.37365 | 61 ft | 5 kts | 69° |
| 2026-04-14 09:09 | 36.84586 | -2.37348 | 62 ft | 5 kts | 2° |
| 2026-04-14 09:10 | 36.84617 | -2.37355 | 68 ft | 5 kts | 344° |
| 2026-04-14 09:10 | 36.84638 | -2.37361 | 69 ft | 4 kts | 0° |
| 2026-04-14 09:10 | 36.84645 | -2.37341 | 62 ft | 3 kts | 111° |
| 2026-04-14 09:10 | 36.84637 | -2.37333 | 60 ft | 1 kts | 141° |
| 2026-04-14 09:11 | 36.84634 | -2.37328 | 61 ft | 0 kts | 129° |